sensor_id;sensor_type;location;lat;lon;timestamp;P1;P2;P0
47081;PMS5003;33066;49.296;14.470;2022-10-16T00:01:04;17;14;
47081;PMS5003;33066;49.296;14.470;2022-10-16T00:03:29;16;16;
47081;PMS5003;33066;49.296;14.470;2022-10-16T00:05:58;16;15;
47081;PMS5003;33066;49.296;14.470;2022-10-16T00:08:21;15;13;
47081;PMS5003;33066;49.296;14.470;2022-10-16T00:10:46;15;15;
47081;PMS5003;33066;49.296;14.470;2022-10-16T00:13:11;12;10;
47081;PMS5003;33066;49.296;14.470;2022-10-16T00:15:37;8;8;
47081;PMS5003;33066;49.296;14.470;2022-10-16T00:18:02;13;10;
47081;PMS5003;33066;49.296;14.470;2022-10-16T00:20:27;8;8;
47081;PMS5003;33066;49.296;14.470;2022-10-16T00:22:52;12;10;
47081;PMS5003;33066;49.296;14.470;2022-10-16T00:25:18;11;10;
47081;PMS5003;33066;49.296;14.470;2022-10-16T00:27:43;11;9;
47081;PMS5003;33066;49.296;14.470;2022-10-16T00:30:09;9;8;
47081;PMS5003;33066;49.296;14.470;2022-10-16T00:32:36;12;11;
47081;PMS5003;33066;49.296;14.470;2022-10-16T00:34:59;10;10;
47081;PMS5003;33066;49.296;14.470;2022-10-16T00:37:25;12;10;
47081;PMS5003;33066;49.296;14.470;2022-10-16T00:39:51;15;10;
47081;PMS5003;33066;49.296;14.470;2022-10-16T00:42:16;13;12;
47081;PMS5003;33066;49.296;14.470;2022-10-16T00:44:42;14;12;
47081;PMS5003;33066;49.296;14.470;2022-10-16T00:47:07;12;10;
47081;PMS5003;33066;49.296;14.470;2022-10-16T00:49:32;14;10;
47081;PMS5003;33066;49.296;14.470;2022-10-16T00:51:57;14;13;
47081;PMS5003;33066;49.296;14.470;2022-10-16T00:54:23;11;9;
47081;PMS5003;33066;49.296;14.470;2022-10-16T00:56:48;11;11;
47081;PMS5003;33066;49.296;14.470;2022-10-16T00:59:14;12;12;
47081;PMS5003;33066;49.296;14.470;2022-10-16T01:01:38;19;19;
47081;PMS5003;33066;49.296;14.470;2022-10-16T01:04:04;12;11;
47081;PMS5003;33066;49.296;14.470;2022-10-16T01:06:32;10;9;
47081;PMS5003;33066;49.296;14.470;2022-10-16T01:09:00;16;13;
47081;PMS5003;33066;49.296;14.470;2022-10-16T01:11:22;14;14;
47081;PMS5003;33066;49.296;14.470;2022-10-16T01:13:47;13;11;
47081;PMS5003;33066;49.296;14.470;2022-10-16T01:16:12;11;11;
47081;PMS5003;33066;49.296;14.470;2022-10-16T01:18:37;12;8;
47081;PMS5003;33066;49.296;14.470;2022-10-16T01:21:03;10;10;
47081;PMS5003;33066;49.296;14.470;2022-10-16T01:23:35;12;11;
47081;PMS5003;33066;49.296;14.470;2022-10-16T01:26:02;9;7;
47081;PMS5003;33066;49.296;14.470;2022-10-16T01:28:19;9;9;
47081;PMS5003;33066;49.296;14.470;2022-10-16T01:30:44;11;10;
47081;PMS5003;33066;49.296;14.470;2022-10-16T01:33:10;7;7;
47081;PMS5003;33066;49.296;14.470;2022-10-16T01:35:35;8;6;
47081;PMS5003;33066;49.296;14.470;2022-10-16T01:38:01;19;17;
47081;PMS5003;33066;49.296;14.470;2022-10-16T01:40:26;10;10;
47081;PMS5003;33066;49.296;14.470;2022-10-16T01:42:52;10;8;
47081;PMS5003;33066;49.296;14.470;2022-10-16T01:45:17;11;9;
47081;PMS5003;33066;49.296;14.470;2022-10-16T01:47:42;12;10;
47081;PMS5003;33066;49.296;14.470;2022-10-16T01:50:08;9;8;
47081;PMS5003;33066;49.296;14.470;2022-10-16T01:52:35;10;10;
47081;PMS5003;33066;49.296;14.470;2022-10-16T01:54:59;12;12;
47081;PMS5003;33066;49.296;14.470;2022-10-16T01:57:24;9;7;
47081;PMS5003;33066;49.296;14.470;2022-10-16T01:59:51;7;6;
47081;PMS5003;33066;49.296;14.470;2022-10-16T02:02:15;6;6;
47081;PMS5003;33066;49.296;14.470;2022-10-16T02:04:42;7;6;
47081;PMS5003;33066;49.296;14.470;2022-10-16T02:07:06;13;12;
47081;PMS5003;33066;49.296;14.470;2022-10-16T02:09:32;10;8;
47081;PMS5003;33066;49.296;14.470;2022-10-16T02:11:56;6;6;
47081;PMS5003;33066;49.296;14.470;2022-10-16T02:14:22;12;11;
47081;PMS5003;33066;49.296;14.470;2022-10-16T02:16:47;12;12;
47081;PMS5003;33066;49.296;14.470;2022-10-16T02:19:14;9;8;
47081;PMS5003;33066;49.296;14.470;2022-10-16T02:21:39;10;9;
47081;PMS5003;33066;49.296;14.470;2022-10-16T02:24:06;7;7;
47081;PMS5003;33066;49.296;14.470;2022-10-16T02:26:28;13;12;
47081;PMS5003;33066;49.296;14.470;2022-10-16T02:28:55;16;15;
47081;PMS5003;33066;49.296;14.470;2022-10-16T02:31:21;13;13;
47081;PMS5003;33066;49.296;14.470;2022-10-16T02:33:45;13;12;
47081;PMS5003;33066;49.296;14.470;2022-10-16T02:36:11;14;14;
47081;PMS5003;33066;49.296;14.470;2022-10-16T02:38:38;15;14;
47081;PMS5003;33066;49.296;14.470;2022-10-16T02:41:01;23;17;
47081;PMS5003;33066;49.296;14.470;2022-10-16T02:43:28;11;11;
47081;PMS5003;33066;49.296;14.470;2022-10-16T02:45:52;15;12;
47081;PMS5003;33066;49.296;14.470;2022-10-16T02:48:18;12;11;
47081;PMS5003;33066;49.296;14.470;2022-10-16T02:50:43;9;9;
47081;PMS5003;33066;49.296;14.470;2022-10-16T02:53:08;19;17;
47081;PMS5003;33066;49.296;14.470;2022-10-16T02:55:35;18;14;
47081;PMS5003;33066;49.296;14.470;2022-10-16T02:57:58;17;16;
47081;PMS5003;33066;49.296;14.470;2022-10-16T03:00:23;12;11;
47081;PMS5003;33066;49.296;14.470;2022-10-16T03:02:49;14;14;
47081;PMS5003;33066;49.296;14.470;2022-10-16T03:05:15;20;18;
47081;PMS5003;33066;49.296;14.470;2022-10-16T03:07:40;15;14;
47081;PMS5003;33066;49.296;14.470;2022-10-16T03:12:59;20;19;
47081;PMS5003;33066;49.296;14.470;2022-10-16T03:15:24;18;16;
47081;PMS5003;33066;49.296;14.470;2022-10-16T03:17:51;18;18;
47081;PMS5003;33066;49.296;14.470;2022-10-16T03:20:17;15;15;
47081;PMS5003;33066;49.296;14.470;2022-10-16T03:22:40;19;17;
47081;PMS5003;33066;49.296;14.470;2022-10-16T03:25:06;67;51;
47081;PMS5003;33066;49.296;14.470;2022-10-16T03:27:31;38;30;
47081;PMS5003;33066;49.296;14.470;2022-10-16T03:29:56;20;18;
47081;PMS5003;33066;49.296;14.470;2022-10-16T03:32:22;18;15;
47081;PMS5003;33066;49.296;14.470;2022-10-16T03:34:48;15;12;
47081;PMS5003;33066;49.296;14.470;2022-10-16T03:37:14;12;12;
47081;PMS5003;33066;49.296;14.470;2022-10-16T03:39:39;13;12;
47081;PMS5003;33066;49.296;14.470;2022-10-16T03:42:06;12;11;
47081;PMS5003;33066;49.296;14.470;2022-10-16T03:44:30;18;17;
47081;PMS5003;33066;49.296;14.470;2022-10-16T03:46:56;9;8;
47081;PMS5003;33066;49.296;14.470;2022-10-16T03:49:21;14;13;
47081;PMS5003;33066;49.296;14.470;2022-10-16T03:51:46;11;7;
47081;PMS5003;33066;49.296;14.470;2022-10-16T03:54:12;11;9;
47081;PMS5003;33066;49.296;14.470;2022-10-16T03:56:37;18;17;
47081;PMS5003;33066;49.296;14.470;2022-10-16T03:59:03;21;19;
47081;PMS5003;33066;49.296;14.470;2022-10-16T04:01:28;17;13;
47081;PMS5003;33066;49.296;14.470;2022-10-16T04:03:53;20;15;
47081;PMS5003;33066;49.296;14.470;2022-10-16T04:06:19;21;18;
47081;PMS5003;33066;49.296;14.470;2022-10-16T04:08:45;16;12;
47081;PMS5003;33066;49.296;14.470;2022-10-16T04:11:10;13;11;
47081;PMS5003;33066;49.296;14.470;2022-10-16T04:13:36;12;9;
47081;PMS5003;33066;49.296;14.470;2022-10-16T04:16:01;9;9;
47081;PMS5003;33066;49.296;14.470;2022-10-16T04:18:29;14;9;
47081;PMS5003;33066;49.296;14.470;2022-10-16T04:20:53;18;14;
47081;PMS5003;33066;49.296;14.470;2022-10-16T04:23:18;15;13;
47081;PMS5003;33066;49.296;14.470;2022-10-16T04:25:45;15;12;
47081;PMS5003;33066;49.296;14.470;2022-10-16T04:28:10;27;22;
47081;PMS5003;33066;49.296;14.470;2022-10-16T04:30:37;22;20;
47081;PMS5003;33066;49.296;14.470;2022-10-16T04:33:01;19;16;
47081;PMS5003;33066;49.296;14.470;2022-10-16T04:35:26;15;14;
47081;PMS5003;33066;49.296;14.470;2022-10-16T04:37:51;15;11;
47081;PMS5003;33066;49.296;14.470;2022-10-16T04:40:16;12;11;
47081;PMS5003;33066;49.296;14.470;2022-10-16T04:42:41;12;12;
47081;PMS5003;33066;49.296;14.470;2022-10-16T04:45:07;8;8;
47081;PMS5003;33066;49.296;14.470;2022-10-16T04:47:32;9;9;
47081;PMS5003;33066;49.296;14.470;2022-10-16T04:49:57;10;8;
47081;PMS5003;33066;49.296;14.470;2022-10-16T04:52:22;9;8;
47081;PMS5003;33066;49.296;14.470;2022-10-16T04:54:50;12;8;
47081;PMS5003;33066;49.296;14.470;2022-10-16T04:57:13;15;14;
47081;PMS5003;33066;49.296;14.470;2022-10-16T04:59:39;9;8;
47081;PMS5003;33066;49.296;14.470;2022-10-16T05:02:04;8;8;
47081;PMS5003;33066;49.296;14.470;2022-10-16T05:04:29;11;8;
47081;PMS5003;33066;49.296;14.470;2022-10-16T05:06:55;11;11;
47081;PMS5003;33066;49.296;14.470;2022-10-16T05:09:20;15;14;
47081;PMS5003;33066;49.296;14.470;2022-10-16T05:11:45;8;7;
47081;PMS5003;33066;49.296;14.470;2022-10-16T05:14:11;7;6;
47081;PMS5003;33066;49.296;14.470;2022-10-16T05:16:37;8;7;
47081;PMS5003;33066;49.296;14.470;2022-10-16T05:19:02;13;10;
47081;PMS5003;33066;49.296;14.470;2022-10-16T05:21:28;14;11;
47081;PMS5003;33066;49.296;14.470;2022-10-16T05:23:54;8;8;
47081;PMS5003;33066;49.296;14.470;2022-10-16T05:26:19;8;8;
47081;PMS5003;33066;49.296;14.470;2022-10-16T05:28:44;11;8;
47081;PMS5003;33066;49.296;14.470;2022-10-16T05:31:10;11;10;
47081;PMS5003;33066;49.296;14.470;2022-10-16T05:33:35;9;7;
47081;PMS5003;33066;49.296;14.470;2022-10-16T05:36:00;7;7;
47081;PMS5003;33066;49.296;14.470;2022-10-16T05:38:25;7;7;
47081;PMS5003;33066;49.296;14.470;2022-10-16T05:40:51;7;7;
47081;PMS5003;33066;49.296;14.470;2022-10-16T05:43:16;8;7;
47081;PMS5003;33066;49.296;14.470;2022-10-16T05:45:42;7;6;
47081;PMS5003;33066;49.296;14.470;2022-10-16T05:48:07;8;7;
47081;PMS5003;33066;49.296;14.470;2022-10-16T05:50:32;7;6;
47081;PMS5003;33066;49.296;14.470;2022-10-16T05:52:58;11;11;
47081;PMS5003;33066;49.296;14.470;2022-10-16T05:55:23;6;6;
47081;PMS5003;33066;49.296;14.470;2022-10-16T05:57:49;13;12;
47081;PMS5003;33066;49.296;14.470;2022-10-16T06:00:15;7;7;
47081;PMS5003;33066;49.296;14.470;2022-10-16T06:02:40;8;8;
47081;PMS5003;33066;49.296;14.470;2022-10-16T06:05:05;8;7;
47081;PMS5003;33066;49.296;14.470;2022-10-16T06:07:34;11;9;
47081;PMS5003;33066;49.296;14.470;2022-10-16T06:09:56;14;9;
47081;PMS5003;33066;49.296;14.470;2022-10-16T06:12:22;11;8;
47081;PMS5003;33066;49.296;14.470;2022-10-16T06:14:48;9;7;
47081;PMS5003;33066;49.296;14.470;2022-10-16T06:17:13;9;8;
47081;PMS5003;33066;49.296;14.470;2022-10-16T06:19:38;12;12;
47081;PMS5003;33066;49.296;14.470;2022-10-16T06:22:04;11;10;
47081;PMS5003;33066;49.296;14.470;2022-10-16T06:24:29;10;9;
47081;PMS5003;33066;49.296;14.470;2022-10-16T06:26:55;10;9;
47081;PMS5003;33066;49.296;14.470;2022-10-16T06:29:20;10;10;
47081;PMS5003;33066;49.296;14.470;2022-10-16T06:31:47;10;10;
47081;PMS5003;33066;49.296;14.470;2022-10-16T06:34:11;13;13;
47081;PMS5003;33066;49.296;14.470;2022-10-16T06:36:38;29;24;
47081;PMS5003;33066;49.296;14.470;2022-10-16T06:39:03;19;17;
47081;PMS5003;33066;49.296;14.470;2022-10-16T06:41:28;14;13;
47081;PMS5003;33066;49.296;14.470;2022-10-16T06:43:54;20;19;
47081;PMS5003;33066;49.296;14.470;2022-10-16T06:46:20;26;21;
47081;PMS5003;33066;49.296;14.470;2022-10-16T06:48:45;31;26;
47081;PMS5003;33066;49.296;14.470;2022-10-16T06:51:11;31;26;
47081;PMS5003;33066;49.296;14.470;2022-10-16T06:53:36;17;17;
47081;PMS5003;33066;49.296;14.470;2022-10-16T06:58:27;17;16;
47081;PMS5003;33066;49.296;14.470;2022-10-16T07:00:57;14;14;
47081;PMS5003;33066;49.296;14.470;2022-10-16T07:03:17;19;19;
47081;PMS5003;33066;49.296;14.470;2022-10-16T07:05:42;16;14;
47081;PMS5003;33066;49.296;14.470;2022-10-16T07:08:08;12;12;
47081;PMS5003;33066;49.296;14.470;2022-10-16T07:10:35;19;14;
47081;PMS5003;33066;49.296;14.470;2022-10-16T07:13:00;21;19;
47081;PMS5003;33066;49.296;14.470;2022-10-16T07:15:25;21;18;
47081;PMS5003;33066;49.296;14.470;2022-10-16T07:17:51;20;17;
47081;PMS5003;33066;49.296;14.470;2022-10-16T07:20:17;24;20;
47081;PMS5003;33066;49.296;14.470;2022-10-16T07:22:41;19;19;
47081;PMS5003;33066;49.296;14.470;2022-10-16T07:25:06;13;13;
47081;PMS5003;33066;49.296;14.470;2022-10-16T07:27:32;40;39;
47081;PMS5003;33066;49.296;14.470;2022-10-16T07:29:57;27;21;
47081;PMS5003;33066;49.296;14.470;2022-10-16T07:32:22;22;16;
47081;PMS5003;33066;49.296;14.470;2022-10-16T07:34:48;31;27;
47081;PMS5003;33066;49.296;14.470;2022-10-16T07:37:14;22;19;
47081;PMS5003;33066;49.296;14.470;2022-10-16T07:39:39;17;15;
47081;PMS5003;33066;49.296;14.470;2022-10-16T07:42:04;484;306;
47081;PMS5003;33066;49.296;14.470;2022-10-16T07:44:29;1110;725;
47081;PMS5003;33066;49.296;14.470;2022-10-16T07:46:55;603;435;
47081;PMS5003;33066;49.296;14.470;2022-10-16T07:49:20;304;220;
47081;PMS5003;33066;49.296;14.470;2022-10-16T07:51:45;171;136;
47081;PMS5003;33066;49.296;14.470;2022-10-16T07:54:12;83;66;
47081;PMS5003;33066;49.296;14.470;2022-10-16T07:56:37;56;49;
47081;PMS5003;33066;49.296;14.470;2022-10-16T07:59:02;37;28;
47081;PMS5003;33066;49.296;14.470;2022-10-16T08:01:28;39;33;
47081;PMS5003;33066;49.296;14.470;2022-10-16T08:03:53;37;36;
47081;PMS5003;33066;49.296;14.470;2022-10-16T08:06:19;29;23;
47081;PMS5003;33066;49.296;14.470;2022-10-16T08:08:45;32;28;
47081;PMS5003;33066;49.296;14.470;2022-10-16T08:11:10;20;18;
47081;PMS5003;33066;49.296;14.470;2022-10-16T08:13:35;20;19;
47081;PMS5003;33066;49.296;14.470;2022-10-16T08:16:00;14;14;
47081;PMS5003;33066;49.296;14.470;2022-10-16T08:18:25;12;9;
47081;PMS5003;33066;49.296;14.470;2022-10-16T08:20:56;16;15;
47081;PMS5003;33066;49.296;14.470;2022-10-16T08:23:16;10;10;
47081;PMS5003;33066;49.296;14.470;2022-10-16T08:25:42;18;16;
47081;PMS5003;33066;49.296;14.470;2022-10-16T08:28:08;16;13;
47081;PMS5003;33066;49.296;14.470;2022-10-16T08:30:34;13;13;
47081;PMS5003;33066;49.296;14.470;2022-10-16T08:32:59;30;27;
47081;PMS5003;33066;49.296;14.470;2022-10-16T08:35:23;13;11;
47081;PMS5003;33066;49.296;14.470;2022-10-16T08:37:48;11;11;
47081;PMS5003;33066;49.296;14.470;2022-10-16T08:40:16;355;220;
47081;PMS5003;33066;49.296;14.470;2022-10-16T08:42:44;461;319;
47081;PMS5003;33066;49.296;14.470;2022-10-16T08:47:35;6185;2399;
47081;PMS5003;33066;49.296;14.470;2022-10-16T08:49:55;2538;1556;
47081;PMS5003;33066;49.296;14.470;2022-10-16T08:52:21;919;660;
47081;PMS5003;33066;49.296;14.470;2022-10-16T08:54:47;1207;835;
47081;PMS5003;33066;49.296;14.470;2022-10-16T08:57:13;812;596;
47081;PMS5003;33066;49.296;14.470;2022-10-16T08:59:38;1475;1051;
47081;PMS5003;33066;49.296;14.470;2022-10-16T09:04:37;945;741;
47081;PMS5003;33066;49.296;14.470;2022-10-16T09:06:54;276;209;
47081;PMS5003;33066;49.296;14.470;2022-10-16T09:09:27;727;564;
47081;PMS5003;33066;49.296;14.470;2022-10-16T09:11:46;245;192;
47081;PMS5003;33066;49.296;14.470;2022-10-16T09:14:15;403;323;
47081;PMS5003;33066;49.296;14.470;2022-10-16T09:16:37;127;103;
47081;PMS5003;33066;49.296;14.470;2022-10-16T09:19:03;150;136;
47081;PMS5003;33066;49.296;14.470;2022-10-16T09:21:27;51;46;
47081;PMS5003;33066;49.296;14.470;2022-10-16T09:23:52;64;53;
47081;PMS5003;33066;49.296;14.470;2022-10-16T09:26:18;41;38;
47081;PMS5003;33066;49.296;14.470;2022-10-16T09:28:43;81;68;
47081;PMS5003;33066;49.296;14.470;2022-10-16T09:31:12;59;52;
47081;PMS5003;33066;49.296;14.470;2022-10-16T09:33:35;31;28;
47081;PMS5003;33066;49.296;14.470;2022-10-16T09:36:01;44;39;
47081;PMS5003;33066;49.296;14.470;2022-10-16T09:38:26;34;28;
47081;PMS5003;33066;49.296;14.470;2022-10-16T09:40:50;29;27;
47081;PMS5003;33066;49.296;14.470;2022-10-16T09:43:20;13;13;
47081;PMS5003;33066;49.296;14.470;2022-10-16T09:45:42;23;20;
47081;PMS5003;33066;49.296;14.470;2022-10-16T09:48:10;7;7;
47081;PMS5003;33066;49.296;14.470;2022-10-16T09:50:32;14;14;
47081;PMS5003;33066;49.296;14.470;2022-10-16T09:53:04;12;9;
47081;PMS5003;33066;49.296;14.470;2022-10-16T09:55:23;12;11;
47081;PMS5003;33066;49.296;14.470;2022-10-16T09:57:54;10;7;
47081;PMS5003;33066;49.296;14.470;2022-10-16T10:00:15;49;46;
47081;PMS5003;33066;49.296;14.470;2022-10-16T10:02:40;14;13;
47081;PMS5003;33066;49.296;14.470;2022-10-16T10:05:05;6;5;
47081;PMS5003;33066;49.296;14.470;2022-10-16T10:07:32;9;7;
47081;PMS5003;33066;49.296;14.470;2022-10-16T10:09:55;5;5;
47081;PMS5003;33066;49.296;14.470;2022-10-16T10:12:20;6;6;
47081;PMS5003;33066;49.296;14.470;2022-10-16T10:14:46;8;8;
47081;PMS5003;33066;49.296;14.470;2022-10-16T10:17:11;5;5;
47081;PMS5003;33066;49.296;14.470;2022-10-16T10:19:37;5;4;
47081;PMS5003;33066;49.296;14.470;2022-10-16T10:22:01;7;6;
47081;PMS5003;33066;49.296;14.470;2022-10-16T10:24:25;5;5;
47081;PMS5003;33066;49.296;14.470;2022-10-16T10:26:52;5;5;
47081;PMS5003;33066;49.296;14.470;2022-10-16T10:29:18;6;6;
47081;PMS5003;33066;49.296;14.470;2022-10-16T10:31:42;26;26;
47081;PMS5003;33066;49.296;14.470;2022-10-16T10:34:11;13;13;
47081;PMS5003;33066;49.296;14.470;2022-10-16T10:36:33;8;4;
47081;PMS5003;33066;49.296;14.470;2022-10-16T10:38:59;3;3;
47081;PMS5003;33066;49.296;14.470;2022-10-16T10:41:31;7;6;
47081;PMS5003;33066;49.296;14.470;2022-10-16T10:43:52;6;6;
47081;PMS5003;33066;49.296;14.470;2022-10-16T10:46:14;7;7;
47081;PMS5003;33066;49.296;14.470;2022-10-16T10:48:47;6;6;
47081;PMS5003;33066;49.296;14.470;2022-10-16T10:51:04;10;9;
47081;PMS5003;33066;49.296;14.470;2022-10-16T10:53:32;5;5;
47081;PMS5003;33066;49.296;14.470;2022-10-16T10:55:57;7;6;
47081;PMS5003;33066;49.296;14.470;2022-10-16T10:58:24;4;4;
47081;PMS5003;33066;49.296;14.470;2022-10-16T11:00:47;12;12;
47081;PMS5003;33066;49.296;14.470;2022-10-16T11:03:12;8;5;
47081;PMS5003;33066;49.296;14.470;2022-10-16T11:05:39;5;5;
47081;PMS5003;33066;49.296;14.470;2022-10-16T11:08:01;5;5;
47081;PMS5003;33066;49.296;14.470;2022-10-16T11:10:27;4;4;
47081;PMS5003;33066;49.296;14.470;2022-10-16T11:12:54;5;4;
47081;PMS5003;33066;49.296;14.470;2022-10-16T11:15:22;9;9;
47081;PMS5003;33066;49.296;14.470;2022-10-16T11:17:44;4;4;
47081;PMS5003;33066;49.296;14.470;2022-10-16T11:20:13;3;3;
47081;PMS5003;33066;49.296;14.470;2022-10-16T11:22:36;5;4;
47081;PMS5003;33066;49.296;14.470;2022-10-16T11:25:04;6;6;
47081;PMS5003;33066;49.296;14.470;2022-10-16T11:27:27;3;3;
47081;PMS5003;33066;49.296;14.470;2022-10-16T11:29:57;4;3;
47081;PMS5003;33066;49.296;14.470;2022-10-16T11:32:20;5;5;
47081;PMS5003;33066;49.296;14.470;2022-10-16T11:34:44;13;13;
47081;PMS5003;33066;49.296;14.470;2022-10-16T11:37:10;7;5;
47081;PMS5003;33066;49.296;14.470;2022-10-16T11:39:34;8;6;
47081;PMS5003;33066;49.296;14.470;2022-10-16T11:42:02;6;6;
47081;PMS5003;33066;49.296;14.470;2022-10-16T11:44:34;8;8;
47081;PMS5003;33066;49.296;14.470;2022-10-16T11:46:51;16;15;
47081;PMS5003;33066;49.296;14.470;2022-10-16T11:49:17;35;32;
47081;PMS5003;33066;49.296;14.470;2022-10-16T11:51:43;8;7;
47081;PMS5003;33066;49.296;14.470;2022-10-16T11:54:10;6;6;
47081;PMS5003;33066;49.296;14.470;2022-10-16T11:56:33;17;17;
47081;PMS5003;33066;49.296;14.470;2022-10-16T11:58:59;8;7;
47081;PMS5003;33066;49.296;14.470;2022-10-16T12:01:28;10;4;
47081;PMS5003;33066;49.296;14.470;2022-10-16T12:03:55;13;13;
47081;PMS5003;33066;49.296;14.470;2022-10-16T12:08:42;16;13;
47081;PMS5003;33066;49.296;14.470;2022-10-16T12:11:07;23;21;
47081;PMS5003;33066;49.296;14.470;2022-10-16T12:13:34;14;14;
47081;PMS5003;33066;49.296;14.470;2022-10-16T12:16:06;37;36;
47081;PMS5003;33066;49.296;14.470;2022-10-16T12:18:24;28;24;
47081;PMS5003;33066;49.296;14.470;2022-10-16T12:23:19;8;7;
47081;PMS5003;33066;49.296;14.470;2022-10-16T12:25:40;8;8;
47081;PMS5003;33066;49.296;14.470;2022-10-16T12:28:04;8;8;
47081;PMS5003;33066;49.296;14.470;2022-10-16T12:30:30;9;9;
47081;PMS5003;33066;49.296;14.470;2022-10-16T12:32:55;10;8;
47081;PMS5003;33066;49.296;14.470;2022-10-16T12:35:21;7;4;
47081;PMS5003;33066;49.296;14.470;2022-10-16T12:37:47;4;4;
47081;PMS5003;33066;49.296;14.470;2022-10-16T12:40:12;9;7;
47081;PMS5003;33066;49.296;14.470;2022-10-16T12:42:40;15;15;
47081;PMS5003;33066;49.296;14.470;2022-10-16T12:47:36;20;15;
47081;PMS5003;33066;49.296;14.470;2022-10-16T12:49:54;9;8;
47081;PMS5003;33066;49.296;14.470;2022-10-16T12:52:26;72;68;
47081;PMS5003;33066;49.296;14.470;2022-10-16T12:54:44;13;11;
47081;PMS5003;33066;49.296;14.470;2022-10-16T12:59:38;4;4;
47081;PMS5003;33066;49.296;14.470;2022-10-16T13:04:33;10;8;
47081;PMS5003;33066;49.296;14.470;2022-10-16T13:06:55;5;5;
47081;PMS5003;33066;49.296;14.470;2022-10-16T13:09:21;5;5;
47081;PMS5003;33066;49.296;14.470;2022-10-16T13:11:51;25;21;
47081;PMS5003;33066;49.296;14.470;2022-10-16T13:16:39;6;6;
47081;PMS5003;33066;49.296;14.470;2022-10-16T13:19:03;4;3;
47081;PMS5003;33066;49.296;14.470;2022-10-16T13:21:31;9;6;
47081;PMS5003;33066;49.296;14.470;2022-10-16T13:23:54;1;1;
47081;PMS5003;33066;49.296;14.470;2022-10-16T13:26:19;3;3;
47081;PMS5003;33066;49.296;14.470;2022-10-16T13:28:42;5;5;
47081;PMS5003;33066;49.296;14.470;2022-10-16T13:31:12;4;4;
47081;PMS5003;33066;49.296;14.470;2022-10-16T13:33:34;6;6;
47081;PMS5003;33066;49.296;14.470;2022-10-16T13:35:59;4;4;
47081;PMS5003;33066;49.296;14.470;2022-10-16T13:38:26;3;3;
47081;PMS5003;33066;49.296;14.470;2022-10-16T13:40:52;8;7;
47081;PMS5003;33066;49.296;14.470;2022-10-16T13:43:16;3;3;
47081;PMS5003;33066;49.296;14.470;2022-10-16T13:45:41;2;2;
47081;PMS5003;33066;49.296;14.470;2022-10-16T13:48:09;5;5;
47081;PMS5003;33066;49.296;14.470;2022-10-16T13:50:32;3;3;
47081;PMS5003;33066;49.296;14.470;2022-10-16T13:53:03;3;3;
47081;PMS5003;33066;49.296;14.470;2022-10-16T13:55:24;10;9;
47081;PMS5003;33066;49.296;14.470;2022-10-16T13:57:49;5;5;
47081;PMS5003;33066;49.296;14.470;2022-10-16T14:00:19;11;11;
47081;PMS5003;33066;49.296;14.470;2022-10-16T14:02:40;3;3;
47081;PMS5003;33066;49.296;14.470;2022-10-16T14:05:08;3;3;
47081;PMS5003;33066;49.296;14.470;2022-10-16T14:07:32;4;4;
47081;PMS5003;33066;49.296;14.470;2022-10-16T14:09:58;4;4;
47081;PMS5003;33066;49.296;14.470;2022-10-16T14:12:22;43;41;
47081;PMS5003;33066;49.296;14.470;2022-10-16T14:14:49;21;17;
47081;PMS5003;33066;49.296;14.470;2022-10-16T14:17:14;42;38;
47081;PMS5003;33066;49.296;14.470;2022-10-16T14:19:39;9;9;
47081;PMS5003;33066;49.296;14.470;2022-10-16T14:22:11;3;3;
47081;PMS5003;33066;49.296;14.470;2022-10-16T14:24:32;5;4;
47081;PMS5003;33066;49.296;14.470;2022-10-16T14:26:56;25;25;
47081;PMS5003;33066;49.296;14.470;2022-10-16T14:29:22;11;10;
47081;PMS5003;33066;49.296;14.470;2022-10-16T14:36:40;12;9;
47081;PMS5003;33066;49.296;14.470;2022-10-16T14:39:05;5;5;
47081;PMS5003;33066;49.296;14.470;2022-10-16T14:41:30;5;5;
47081;PMS5003;33066;49.296;14.470;2022-10-16T14:43:56;1;1;
47081;PMS5003;33066;49.296;14.470;2022-10-16T14:46:21;2;2;
47081;PMS5003;33066;49.296;14.470;2022-10-16T14:48:47;3;3;
47081;PMS5003;33066;49.296;14.470;2022-10-16T14:51:13;3;3;
47081;PMS5003;33066;49.296;14.470;2022-10-16T14:53:38;3;3;
47081;PMS5003;33066;49.296;14.470;2022-10-16T14:56:06;4;1;
47081;PMS5003;33066;49.296;14.470;2022-10-16T14:58:30;2;2;
47081;PMS5003;33066;49.296;14.470;2022-10-16T15:00:55;6;6;
47081;PMS5003;33066;49.296;14.470;2022-10-16T15:03:21;4;4;
47081;PMS5003;33066;49.296;14.470;2022-10-16T15:05:46;2;2;
47081;PMS5003;33066;49.296;14.470;2022-10-16T15:08:12;1;1;
47081;PMS5003;33066;49.296;14.470;2022-10-16T15:10:38;2;2;
47081;PMS5003;33066;49.296;14.470;2022-10-16T15:13:03;2;2;
47081;PMS5003;33066;49.296;14.470;2022-10-16T15:15:32;3;3;
47081;PMS5003;33066;49.296;14.470;2022-10-16T15:17:55;3;1;
47081;PMS5003;33066;49.296;14.470;2022-10-16T15:20:21;4;4;
47081;PMS5003;33066;49.296;14.470;2022-10-16T15:22:48;1;1;
47081;PMS5003;33066;49.296;14.470;2022-10-16T15:25:15;3;3;
47081;PMS5003;33066;49.296;14.470;2022-10-16T15:27:38;4;4;
47081;PMS5003;33066;49.296;14.470;2022-10-16T15:30:03;14;14;
47081;PMS5003;33066;49.296;14.470;2022-10-16T15:32:28;2;2;
47081;PMS5003;33066;49.296;14.470;2022-10-16T15:34:54;2;2;
47081;PMS5003;33066;49.296;14.470;2022-10-16T15:37:20;2;2;
47081;PMS5003;33066;49.296;14.470;2022-10-16T15:39:46;7;6;
47081;PMS5003;33066;49.296;14.470;2022-10-16T15:42:12;3;3;
47081;PMS5003;33066;49.296;14.470;2022-10-16T15:44:37;52;36;
47081;PMS5003;33066;49.296;14.470;2022-10-16T15:47:03;11;11;
47081;PMS5003;33066;49.296;14.470;2022-10-16T15:49:28;9;9;
47081;PMS5003;33066;49.296;14.470;2022-10-16T15:51:54;8;8;
47081;PMS5003;33066;49.296;14.470;2022-10-16T15:54:19;9;9;
47081;PMS5003;33066;49.296;14.470;2022-10-16T15:56:45;9;8;
47081;PMS5003;33066;49.296;14.470;2022-10-16T15:59:11;11;11;
47081;PMS5003;33066;49.296;14.470;2022-10-16T16:01:36;3;3;
47081;PMS5003;33066;49.296;14.470;2022-10-16T16:04:02;2;2;
47081;PMS5003;33066;49.296;14.470;2022-10-16T16:06:29;2;2;
47081;PMS5003;33066;49.296;14.470;2022-10-16T16:08:53;6;4;
47081;PMS5003;33066;49.296;14.470;2022-10-16T16:11:18;6;6;
47081;PMS5003;33066;49.296;14.470;2022-10-16T16:13:43;19;18;
47081;PMS5003;33066;49.296;14.470;2022-10-16T16:16:10;7;7;
47081;PMS5003;33066;49.296;14.470;2022-10-16T16:18:35;11;11;
47081;PMS5003;33066;49.296;14.470;2022-10-16T16:21:00;14;7;
47081;PMS5003;33066;49.296;14.470;2022-10-16T16:23:26;29;26;
47081;PMS5003;33066;49.296;14.470;2022-10-16T16:28:16;8;7;
47081;PMS5003;33066;49.296;14.470;2022-10-16T16:30:42;13;10;
47081;PMS5003;33066;49.296;14.470;2022-10-16T16:33:11;37;32;